sensor_id;sensor_type;location;lat;lon;timestamp;pressure;altitude;pressure_sealevel;temperature;humidity
65872;BME280;52653;50.080;21.992;2022-12-07T00:00:53;98665.73;;;3.00;88.87
65872;BME280;52653;50.080;21.992;2022-12-07T00:03:26;98668.36;;;3.02;89.07
65872;BME280;52653;50.080;21.992;2022-12-07T00:06:00;98662.66;;;3.04;89.00
65872;BME280;52653;50.080;21.992;2022-12-07T00:08:33;98657.17;;;3.06;88.88
65872;BME280;52653;50.080;21.992;2022-12-07T00:11:07;98659.95;;;3.07;89.00
65872;BME280;52653;50.080;21.992;2022-12-07T00:13:40;98657.39;;;3.10;89.02
65872;BME280;52653;50.080;21.992;2022-12-07T00:16:14;98661.02;;;3.10;89.05
65872;BME280;52653;50.080;21.992;2022-12-07T00:18:47;98664.61;;;3.06;89.13
65872;BME280;52653;50.080;21.992;2022-12-07T00:21:20;98665.08;;;3.03;89.45
65872;BME280;52653;50.080;21.992;2022-12-07T00:23:54;98674.23;;;3.01;89.55
65872;BME280;52653;50.080;21.992;2022-12-07T00:26:28;98673.17;;;2.98;89.46
65872;BME280;52653;50.080;21.992;2022-12-07T00:29:03;98675.76;;;2.97;89.48
65872;BME280;52653;50.080;21.992;2022-12-07T00:31:36;98678.73;;;2.99;89.59
65872;BME280;52653;50.080;21.992;2022-12-07T00:34:14;98678.41;;;3.02;89.72
65872;BME280;52653;50.080;21.992;2022-12-07T00:36:49;98679.00;;;3.07;89.73
65872;BME280;52653;50.080;21.992;2022-12-07T00:39:22;98677.67;;;3.11;89.69
65872;BME280;52653;50.080;21.992;2022-12-07T00:41:54;98677.34;;;3.13;89.40
65872;BME280;52653;50.080;21.992;2022-12-07T00:44:26;98680.63;;;3.12;89.39
65872;BME280;52653;50.080;21.992;2022-12-07T00:46:58;98680.93;;;3.09;89.13
65872;BME280;52653;50.080;21.992;2022-12-07T00:49:30;98681.36;;;3.03;89.20
65872;BME280;52653;50.080;21.992;2022-12-07T00:52:03;98681.98;;;2.96;89.14
65872;BME280;52653;50.080;21.992;2022-12-07T00:54:35;98680.52;;;2.91;89.22
65872;BME280;52653;50.080;21.992;2022-12-07T00:57:07;98681.33;;;2.87;89.48
65872;BME280;52653;50.080;21.992;2022-12-07T00:59:40;98681.50;;;2.87;89.57
65872;BME280;52653;50.080;21.992;2022-12-07T01:02:12;98680.13;;;2.89;89.70
65872;BME280;52653;50.080;21.992;2022-12-07T01:04:44;98676.52;;;2.92;89.63
65872;BME280;52653;50.080;21.992;2022-12-07T01:07:16;98674.34;;;2.94;89.62
65872;BME280;52653;50.080;21.992;2022-12-07T01:09:48;98673.50;;;2.97;89.47
65872;BME280;52653;50.080;21.992;2022-12-07T01:12:21;98668.32;;;2.99;89.30
65872;BME280;52653;50.080;21.992;2022-12-07T01:14:53;98669.39;;;3.01;89.15
65872;BME280;52653;50.080;21.992;2022-12-07T01:17:25;98663.68;;;3.02;89.45
65872;BME280;52653;50.080;21.992;2022-12-07T01:19:57;98665.23;;;3.02;89.36
65872;BME280;52653;50.080;21.992;2022-12-07T01:22:30;98662.63;;;3.01;89.65
65872;BME280;52653;50.080;21.992;2022-12-07T01:25:03;98659.65;;;2.99;89.55
65872;BME280;52653;50.080;21.992;2022-12-07T01:27:35;98654.45;;;2.98;89.45
65872;BME280;52653;50.080;21.992;2022-12-07T01:30:09;98657.41;;;2.98;89.42
65872;BME280;52653;50.080;21.992;2022-12-07T01:32:42;98657.09;;;3.01;89.63
65872;BME280;52653;50.080;21.992;2022-12-07T01:35:14;98657.48;;;3.05;89.53
65872;BME280;52653;50.080;21.992;2022-12-07T01:37:46;98660.52;;;3.10;89.53
65872;BME280;52653;50.080;21.992;2022-12-07T01:40:19;98656.56;;;3.13;89.34
65872;BME280;52653;50.080;21.992;2022-12-07T01:42:51;98656.09;;;3.17;89.42
65872;BME280;52653;50.080;21.992;2022-12-07T01:45:46;98661.52;;;3.21;89.43
65872;BME280;52653;50.080;21.992;2022-12-07T01:48:20;98661.38;;;3.23;89.38
65872;BME280;52653;50.080;21.992;2022-12-07T01:50:54;98660.31;;;3.21;89.17
65872;BME280;52653;50.080;21.992;2022-12-07T01:53:29;98662.32;;;3.17;89.06
65872;BME280;52653;50.080;21.992;2022-12-07T01:56:02;98659.50;;;3.12;89.20
65872;BME280;52653;50.080;21.992;2022-12-07T01:58:35;98658.55;;;3.07;88.96
65872;BME280;52653;50.080;21.992;2022-12-07T02:01:08;98666.61;;;3.00;88.65
65872;BME280;52653;50.080;21.992;2022-12-07T02:03:42;98664.50;;;2.98;88.88
65872;BME280;52653;50.080;21.992;2022-12-07T02:06:19;98662.06;;;2.97;88.74
65872;BME280;52653;50.080;21.992;2022-12-07T02:08:53;98663.10;;;2.97;88.73
65872;BME280;52653;50.080;21.992;2022-12-07T02:11:25;98659.83;;;2.98;88.99
65872;BME280;52653;50.080;21.992;2022-12-07T02:13:57;98662.46;;;3.02;88.99
65872;BME280;52653;50.080;21.992;2022-12-07T02:16:36;98665.25;;;3.03;88.84
65872;BME280;52653;50.080;21.992;2022-12-07T02:22:42;98667.45;;;2.98;88.87
65872;BME280;52653;50.080;21.992;2022-12-07T02:25:33;98664.05;;;2.91;88.86
65872;BME280;52653;50.080;21.992;2022-12-07T02:28:12;98665.20;;;2.86;89.08
65872;BME280;52653;50.080;21.992;2022-12-07T02:30:48;98665.35;;;2.84;89.22
65872;BME280;52653;50.080;21.992;2022-12-07T02:33:27;98664.80;;;2.81;88.86
65872;BME280;52653;50.080;21.992;2022-12-07T02:36:04;98665.61;;;2.78;88.82
65872;BME280;52653;50.080;21.992;2022-12-07T02:38:43;98669.38;;;2.75;88.91
65872;BME280;52653;50.080;21.992;2022-12-07T02:41:21;98667.08;;;2.72;89.13
65872;BME280;52653;50.080;21.992;2022-12-07T02:43:55;98664.13;;;2.72;89.11
65872;BME280;52653;50.080;21.992;2022-12-07T02:46:32;98661.55;;;2.74;89.18
65872;BME280;52653;50.080;21.992;2022-12-07T02:49:06;98658.42;;;2.73;88.94
65872;BME280;52653;50.080;21.992;2022-12-07T02:51:42;98659.96;;;2.70;88.99
65872;BME280;52653;50.080;21.992;2022-12-07T02:54:20;98659.41;;;2.67;89.17
65872;BME280;52653;50.080;21.992;2022-12-07T02:56:59;98664.50;;;2.61;88.98
65872;BME280;52653;50.080;21.992;2022-12-07T02:59:43;98669.77;;;2.55;89.24
65872;BME280;52653;50.080;21.992;2022-12-07T03:02:27;98664.83;;;2.49;89.30
65872;BME280;52653;50.080;21.992;2022-12-07T03:05:15;98664.26;;;2.46;89.79
65872;BME280;52653;50.080;21.992;2022-12-07T03:07:58;98661.84;;;2.46;89.73
65872;BME280;52653;50.080;21.992;2022-12-07T03:10:43;98658.73;;;2.46;89.76
65872;BME280;52653;50.080;21.992;2022-12-07T03:13:24;98656.15;;;2.48;89.72
65872;BME280;52653;50.080;21.992;2022-12-07T03:16:01;98660.16;;;2.50;89.75
65872;BME280;52653;50.080;21.992;2022-12-07T03:18:37;98655.92;;;2.55;89.84
65872;BME280;52653;50.080;21.992;2022-12-07T03:21:17;98655.81;;;2.58;89.80
65872;BME280;52653;50.080;21.992;2022-12-07T03:23:53;98657.09;;;2.64;89.86
65872;BME280;52653;50.080;21.992;2022-12-07T03:26:31;98651.62;;;2.68;89.64
65872;BME280;52653;50.080;21.992;2022-12-07T03:29:08;98650.98;;;2.73;89.89
65872;BME280;52653;50.080;21.992;2022-12-07T03:31:42;98641.66;;;2.75;90.00
65872;BME280;52653;50.080;21.992;2022-12-07T03:34:20;98645.28;;;2.73;89.80
65872;BME280;52653;50.080;21.992;2022-12-07T03:37:00;98641.59;;;2.69;89.84
65872;BME280;52653;50.080;21.992;2022-12-07T03:39:36;98642.75;;;2.66;89.95
65872;BME280;52653;50.080;21.992;2022-12-07T03:42:11;98636.84;;;2.65;89.94
65872;BME280;52653;50.080;21.992;2022-12-07T03:44:44;98636.38;;;2.68;89.92
65872;BME280;52653;50.080;21.992;2022-12-07T03:47:22;98633.48;;;2.71;90.08
65872;BME280;52653;50.080;21.992;2022-12-07T03:50:00;98638.04;;;2.76;90.11
65872;BME280;52653;50.080;21.992;2022-12-07T03:52:39;98633.23;;;2.79;89.91
65872;BME280;52653;50.080;21.992;2022-12-07T03:55:17;98628.97;;;2.82;89.98
65872;BME280;52653;50.080;21.992;2022-12-07T03:57:54;98630.24;;;2.88;90.08
65872;BME280;52653;50.080;21.992;2022-12-07T04:00:27;98621.65;;;2.92;89.97
65872;BME280;52653;50.080;21.992;2022-12-07T04:03:00;98624.48;;;2.96;89.87
65872;BME280;52653;50.080;21.992;2022-12-07T04:05:32;98621.02;;;2.97;89.65
65872;BME280;52653;50.080;21.992;2022-12-07T04:08:05;98619.79;;;2.96;89.77
65872;BME280;52653;50.080;21.992;2022-12-07T04:10:37;98619.09;;;2.94;89.84
65872;BME280;52653;50.080;21.992;2022-12-07T04:13:10;98617.35;;;2.93;89.93
65872;BME280;52653;50.080;21.992;2022-12-07T04:15:42;98621.98;;;2.91;89.57
65872;BME280;52653;50.080;21.992;2022-12-07T04:18:14;98625.93;;;2.90;89.56
65872;BME280;52653;50.080;21.992;2022-12-07T04:20:46;98619.93;;;2.93;89.85
65872;BME280;52653;50.080;21.992;2022-12-07T04:23:19;98619.80;;;2.97;89.90
65872;BME280;52653;50.080;21.992;2022-12-07T04:25:51;98615.89;;;3.03;89.77
65872;BME280;52653;50.080;21.992;2022-12-07T04:28:23;98617.54;;;3.10;89.84
65872;BME280;52653;50.080;21.992;2022-12-07T04:30:56;98616.59;;;3.17;89.83
65872;BME280;52653;50.080;21.992;2022-12-07T04:33:28;98614.36;;;3.19;89.55
65872;BME280;52653;50.080;21.992;2022-12-07T04:36:00;98610.73;;;3.19;89.43
65872;BME280;52653;50.080;21.992;2022-12-07T04:38:32;98607.05;;;3.16;89.33
65872;BME280;52653;50.080;21.992;2022-12-07T04:41:07;98610.47;;;3.13;89.32
65872;BME280;52653;50.080;21.992;2022-12-07T04:43:40;98615.29;;;3.09;89.26
65872;BME280;52653;50.080;21.992;2022-12-07T04:46:13;98610.58;;;3.07;89.26
65872;BME280;52653;50.080;21.992;2022-12-07T04:48:45;98610.52;;;3.04;89.17
65872;BME280;52653;50.080;21.992;2022-12-07T04:51:20;98607.06;;;3.04;89.26
65872;BME280;52653;50.080;21.992;2022-12-07T04:53:53;98606.94;;;3.06;89.23
65872;BME280;52653;50.080;21.992;2022-12-07T04:56:26;98604.89;;;3.10;89.27
65872;BME280;52653;50.080;21.992;2022-12-07T04:58:58;98606.87;;;3.17;89.48
65872;BME280;52653;50.080;21.992;2022-12-07T05:01:31;98606.06;;;3.20;89.34
65872;BME280;52653;50.080;21.992;2022-12-07T05:04:04;98605.06;;;3.24;89.35
65872;BME280;52653;50.080;21.992;2022-12-07T05:06:36;98600.58;;;3.26;89.44
65872;BME280;52653;50.080;21.992;2022-12-07T05:09:09;98597.50;;;3.30;89.57
65872;BME280;52653;50.080;21.992;2022-12-07T05:11:41;98596.47;;;3.30;89.37
65872;BME280;52653;50.080;21.992;2022-12-07T05:14:16;98595.58;;;3.29;89.29
65872;BME280;52653;50.080;21.992;2022-12-07T05:16:50;98595.76;;;3.30;89.35
65872;BME280;52653;50.080;21.992;2022-12-07T05:19:22;98597.48;;;3.29;88.97
65872;BME280;52653;50.080;21.992;2022-12-07T05:21:55;98596.07;;;3.27;88.53
65872;BME280;52653;50.080;21.992;2022-12-07T05:24:27;98597.08;;;3.23;88.38
65872;BME280;52653;50.080;21.992;2022-12-07T05:26:59;98600.02;;;3.23;88.46
65872;BME280;52653;50.080;21.992;2022-12-07T05:29:32;98599.85;;;3.22;88.50
65872;BME280;52653;50.080;21.992;2022-12-07T05:32:04;98600.02;;;3.21;88.60
65872;BME280;52653;50.080;21.992;2022-12-07T05:34:36;98598.78;;;3.19;88.76
65872;BME280;52653;50.080;21.992;2022-12-07T05:37:08;98596.65;;;3.16;88.93
65872;BME280;52653;50.080;21.992;2022-12-07T05:39:40;98598.17;;;3.13;88.93
65872;BME280;52653;50.080;21.992;2022-12-07T05:42:13;98597.58;;;3.07;88.93
65872;BME280;52653;50.080;21.992;2022-12-07T05:44:47;98601.52;;;3.05;89.21
65872;BME280;52653;50.080;21.992;2022-12-07T05:47:21;98605.22;;;3.08;89.19
65872;BME280;52653;50.080;21.992;2022-12-07T05:49:53;98605.59;;;3.10;89.10
65872;BME280;52653;50.080;21.992;2022-12-07T05:52:25;98603.33;;;3.09;88.68
65872;BME280;52653;50.080;21.992;2022-12-07T05:54:58;98605.08;;;3.11;89.07
65872;BME280;52653;50.080;21.992;2022-12-07T05:57:30;98600.64;;;3.17;89.37
65872;BME280;52653;50.080;21.992;2022-12-07T06:00:03;98598.97;;;3.21;89.08
65872;BME280;52653;50.080;21.992;2022-12-07T06:02:41;98595.00;;;3.23;89.01
65872;BME280;52653;50.080;21.992;2022-12-07T06:05:14;98594.83;;;3.23;89.05
65872;BME280;52653;50.080;21.992;2022-12-07T06:07:46;98597.59;;;3.22;88.95
65872;BME280;52653;50.080;21.992;2022-12-07T06:10:19;98596.33;;;3.18;88.79
65872;BME280;52653;50.080;21.992;2022-12-07T06:12:51;98599.75;;;3.15;88.89
65872;BME280;52653;50.080;21.992;2022-12-07T06:15:23;98597.49;;;3.15;88.69
65872;BME280;52653;50.080;21.992;2022-12-07T06:17:55;98594.90;;;3.15;88.72
65872;BME280;52653;50.080;21.992;2022-12-07T06:20:27;98595.82;;;3.18;88.93
65872;BME280;52653;50.080;21.992;2022-12-07T06:22:59;98589.77;;;3.20;88.73
65872;BME280;52653;50.080;21.992;2022-12-07T06:25:32;98586.67;;;3.22;88.72
65872;BME280;52653;50.080;21.992;2022-12-07T06:28:04;98585.14;;;3.25;88.78
65872;BME280;52653;50.080;21.992;2022-12-07T06:30:37;98583.77;;;3.27;88.79
65872;BME280;52653;50.080;21.992;2022-12-07T06:33:09;98582.88;;;3.24;88.46
65872;BME280;52653;50.080;21.992;2022-12-07T06:35:41;98582.80;;;3.17;88.29
65872;BME280;52653;50.080;21.992;2022-12-07T06:38:13;98587.60;;;3.13;88.53
65872;BME280;52653;50.080;21.992;2022-12-07T06:40:48;98589.12;;;3.09;88.54
65872;BME280;52653;50.080;21.992;2022-12-07T06:43:20;98592.74;;;3.07;88.53
65872;BME280;52653;50.080;21.992;2022-12-07T06:45:53;98589.24;;;3.05;88.69
65872;BME280;52653;50.080;21.992;2022-12-07T06:48:25;98592.20;;;3.07;88.76
65872;BME280;52653;50.080;21.992;2022-12-07T06:50:57;98589.30;;;3.10;88.80
65872;BME280;52653;50.080;21.992;2022-12-07T06:53:30;98591.93;;;3.13;88.65
65872;BME280;52653;50.080;21.992;2022-12-07T06:56:02;98594.70;;;3.14;88.44
65872;BME280;52653;50.080;21.992;2022-12-07T06:58:35;98591.61;;;3.16;88.46
65872;BME280;52653;50.080;21.992;2022-12-07T07:01:11;98587.48;;;3.17;88.34
65872;BME280;52653;50.080;21.992;2022-12-07T07:03:44;98595.26;;;3.16;88.49
65872;BME280;52653;50.080;21.992;2022-12-07T07:06:19;98600.25;;;3.13;88.48
65872;BME280;52653;50.080;21.992;2022-12-07T07:08:51;98600.52;;;3.07;88.44
65872;BME280;52653;50.080;21.992;2022-12-07T07:11:24;98603.05;;;3.02;88.70
65872;BME280;52653;50.080;21.992;2022-12-07T07:13:56;98602.16;;;3.00;88.95
65872;BME280;52653;50.080;21.992;2022-12-07T07:16:32;98602.17;;;3.01;88.79
65872;BME280;52653;50.080;21.992;2022-12-07T07:19:05;98600.95;;;3.01;88.89
65872;BME280;52653;50.080;21.992;2022-12-07T07:21:37;98604.95;;;3.01;88.87
65872;BME280;52653;50.080;21.992;2022-12-07T07:24:10;98602.19;;;3.02;88.89
65872;BME280;52653;50.080;21.992;2022-12-07T07:26:42;98602.60;;;3.06;88.90
65872;BME280;52653;50.080;21.992;2022-12-07T07:29:14;98603.65;;;3.07;88.74
65872;BME280;52653;50.080;21.992;2022-12-07T07:31:47;98605.37;;;3.06;88.62
65872;BME280;52653;50.080;21.992;2022-12-07T07:34:20;98600.02;;;3.07;88.58
65872;BME280;52653;50.080;21.992;2022-12-07T07:36:52;98596.39;;;3.08;88.52
65872;BME280;52653;50.080;21.992;2022-12-07T07:39:25;98600.58;;;3.12;88.65
65872;BME280;52653;50.080;21.992;2022-12-07T07:41:57;98600.79;;;3.15;88.74
65872;BME280;52653;50.080;21.992;2022-12-07T07:44:30;98601.31;;;3.15;88.46
65872;BME280;52653;50.080;21.992;2022-12-07T07:47:05;98600.94;;;3.13;88.55
65872;BME280;52653;50.080;21.992;2022-12-07T07:49:37;98599.86;;;3.09;88.52
65872;BME280;52653;50.080;21.992;2022-12-07T07:52:17;98600.86;;;3.05;88.45
65872;BME280;52653;50.080;21.992;2022-12-07T07:54:50;98603.75;;;3.03;88.76
65872;BME280;52653;50.080;21.992;2022-12-07T07:57:23;98605.66;;;3.03;88.76
65872;BME280;52653;50.080;21.992;2022-12-07T07:59:55;98606.71;;;3.05;88.80
65872;BME280;52653;50.080;21.992;2022-12-07T08:02:28;98606.01;;;3.03;88.64
65872;BME280;52653;50.080;21.992;2022-12-07T08:05:00;98606.02;;;3.04;88.79
65872;BME280;52653;50.080;21.992;2022-12-07T08:07:33;98609.55;;;3.08;88.86
65872;BME280;52653;50.080;21.992;2022-12-07T08:10:10;98609.42;;;3.12;88.65
65872;BME280;52653;50.080;21.992;2022-12-07T08:12:43;98611.52;;;3.14;88.49
65872;BME280;52653;50.080;21.992;2022-12-07T08:15:33;98617.05;;;3.13;88.59
65872;BME280;52653;50.080;21.992;2022-12-07T08:18:05;98617.04;;;3.12;88.68
65872;BME280;52653;50.080;21.992;2022-12-07T08:20:38;98620.66;;;3.09;88.83
65872;BME280;52653;50.080;21.992;2022-12-07T08:23:11;98619.60;;;3.08;88.96
65872;BME280;52653;50.080;21.992;2022-12-07T08:25:43;98622.91;;;3.09;89.02
65872;BME280;52653;50.080;21.992;2022-12-07T08:28:16;98625.00;;;3.10;89.07
65872;BME280;52653;50.080;21.992;2022-12-07T08:30:49;98628.15;;;3.14;88.92
65872;BME280;52653;50.080;21.992;2022-12-07T08:33:22;98629.79;;;3.19;88.92
65872;BME280;52653;50.080;21.992;2022-12-07T08:35:59;98626.38;;;3.24;88.81
65872;BME280;52653;50.080;21.992;2022-12-07T08:38:33;98629.36;;;3.29;88.70
65872;BME280;52653;50.080;21.992;2022-12-07T08:41:06;98628.57;;;3.33;88.61
65872;BME280;52653;50.080;21.992;2022-12-07T08:43:38;98630.17;;;3.38;88.52
65872;BME280;52653;50.080;21.992;2022-12-07T08:46:15;98630.73;;;3.42;88.22
65872;BME280;52653;50.080;21.992;2022-12-07T08:48:52;98635.33;;;3.49;88.33
65872;BME280;52653;50.080;21.992;2022-12-07T08:51:27;98634.33;;;3.53;88.23
65872;BME280;52653;50.080;21.992;2022-12-07T08:54:00;98633.33;;;3.56;88.07
65872;BME280;52653;50.080;21.992;2022-12-07T08:56:33;98636.45;;;3.56;87.91
65872;BME280;52653;50.080;21.992;2022-12-07T08:59:07;98632.10;;;3.55;87.79
65872;BME280;52653;50.080;21.992;2022-12-07T09:01:39;98630.52;;;3.55;87.90
65872;BME280;52653;50.080;21.992;2022-12-07T09:04:12;98628.67;;;3.58;88.00
65872;BME280;52653;50.080;21.992;2022-12-07T09:06:44;98630.96;;;3.62;87.90
65872;BME280;52653;50.080;21.992;2022-12-07T09:09:17;98630.67;;;3.68;87.79
65872;BME280;52653;50.080;21.992;2022-12-07T09:11:49;98631.27;;;3.73;87.67
65872;BME280;52653;50.080;21.992;2022-12-07T09:14:22;98628.34;;;3.78;87.54
65872;BME280;52653;50.080;21.992;2022-12-07T09:16:54;98628.03;;;3.81;87.31
65872;BME280;52653;50.080;21.992;2022-12-07T09:19:27;98625.31;;;3.87;87.28
65872;BME280;52653;50.080;21.992;2022-12-07T09:21:59;98625.17;;;3.92;87.05
65872;BME280;52653;50.080;21.992;2022-12-07T09:24:31;98626.63;;;3.97;87.25
65872;BME280;52653;50.080;21.992;2022-12-07T09:27:04;98627.84;;;3.97;86.94
65872;BME280;52653;50.080;21.992;2022-12-07T09:29:36;98622.09;;;3.94;86.76
65872;BME280;52653;50.080;21.992;2022-12-07T09:32:08;98623.79;;;3.92;86.81
65872;BME280;52653;50.080;21.992;2022-12-07T09:34:41;98623.27;;;3.92;86.75
65872;BME280;52653;50.080;21.992;2022-12-07T09:37:14;98620.69;;;3.94;86.75
65872;BME280;52653;50.080;21.992;2022-12-07T09:39:46;98620.91;;;3.98;86.58
65872;BME280;52653;50.080;21.992;2022-12-07T09:42:29;98619.38;;;4.03;86.40
65872;BME280;52653;50.080;21.992;2022-12-07T09:45:07;98616.61;;;4.05;86.27
65872;BME280;52653;50.080;21.992;2022-12-07T09:47:44;98617.83;;;4.05;86.33
65872;BME280;52653;50.080;21.992;2022-12-07T09:50:19;98613.14;;;4.04;86.27
65872;BME280;52653;50.080;21.992;2022-12-07T09:52:53;98612.96;;;4.04;86.49
65872;BME280;52653;50.080;21.992;2022-12-07T09:55:28;98611.39;;;4.00;86.27
65872;BME280;52653;50.080;21.992;2022-12-07T09:58:02;98615.31;;;3.94;86.32
65872;BME280;52653;50.080;21.992;2022-12-07T10:00:34;98609.54;;;3.88;86.50
65872;BME280;52653;50.080;21.992;2022-12-07T10:03:09;98607.91;;;3.82;86.48
65872;BME280;52653;50.080;21.992;2022-12-07T10:05:46;98610.14;;;3.78;86.68
65872;BME280;52653;50.080;21.992;2022-12-07T10:08:20;98605.61;;;3.77;86.78
65872;BME280;52653;50.080;21.992;2022-12-07T10:10:54;98604.98;;;3.83;86.98
65872;BME280;52653;50.080;21.992;2022-12-07T10:13:38;98608.33;;;3.89;86.71
65872;BME280;52653;50.080;21.992;2022-12-07T10:16:31;98605.45;;;3.95;86.63
65872;BME280;52653;50.080;21.992;2022-12-07T10:22:20;98604.14;;;4.06;86.43
65872;BME280;52653;50.080;21.992;2022-12-07T10:25:10;98608.46;;;4.05;86.59
65872;BME280;52653;50.080;21.992;2022-12-07T10:28:01;98607.30;;;4.08;86.72
65872;BME280;52653;50.080;21.992;2022-12-07T10:30:45;98607.31;;;4.11;86.34
65872;BME280;52653;50.080;21.992;2022-12-07T10:33:31;98602.64;;;4.13;86.47
65872;BME280;52653;50.080;21.992;2022-12-07T10:36:17;98603.36;;;4.18;86.40
65872;BME280;52653;50.080;21.992;2022-12-07T10:38:52;98602.20;;;4.22;86.13
65872;BME280;52653;50.080;21.992;2022-12-07T10:41:25;98604.11;;;4.23;85.92
65872;BME280;52653;50.080;21.992;2022-12-07T10:43:59;98605.85;;;4.22;85.70
65872;BME280;52653;50.080;21.992;2022-12-07T10:46:43;98607.86;;;4.17;85.71
65872;BME280;52653;50.080;21.992;2022-12-07T10:52:16;98605.42;;;4.13;85.97
65872;BME280;52653;50.080;21.992;2022-12-07T10:55:01;98607.09;;;4.05;85.87
65872;BME280;52653;50.080;21.992;2022-12-07T10:57:51;98602.18;;;4.00;86.18
65872;BME280;52653;50.080;21.992;2022-12-07T11:00:33;98599.92;;;3.99;86.54
65872;BME280;52653;50.080;21.992;2022-12-07T11:03:21;98599.23;;;3.99;86.58
65872;BME280;52653;50.080;21.992;2022-12-07T11:06:04;98603.91;;;4.00;86.54
65872;BME280;52653;50.080;21.992;2022-12-07T11:08:51;98603.41;;;4.01;86.59
65872;BME280;52653;50.080;21.992;2022-12-07T11:11:33;98600.45;;;3.99;86.51
65872;BME280;52653;50.080;21.992;2022-12-07T11:14:15;98607.03;;;3.98;86.11
65872;BME280;52653;50.080;21.992;2022-12-07T11:16:57;98602.16;;;3.96;86.14
65872;BME280;52653;50.080;21.992;2022-12-07T11:19:54;98605.30;;;3.98;86.53
65872;BME280;52653;50.080;21.992;2022-12-07T11:22:36;98599.75;;;4.00;86.18
65872;BME280;52653;50.080;21.992;2022-12-07T11:25:20;98594.36;;;3.97;85.75
65872;BME280;52653;50.080;21.992;2022-12-07T11:28:09;98594.73;;;4.03;86.11
65872;BME280;52653;50.080;21.992;2022-12-07T11:30:52;98597.74;;;4.08;86.12
65872;BME280;52653;50.080;21.992;2022-12-07T11:33:36;98595.31;;;4.07;85.69
65872;BME280;52653;50.080;21.992;2022-12-07T11:36:24;98596.31;;;4.04;85.43
65872;BME280;52653;50.080;21.992;2022-12-07T11:39:04;98593.37;;;4.05;86.01
65872;BME280;52653;50.080;21.992;2022-12-07T11:41:43;98598.57;;;4.04;85.64
65872;BME280;52653;50.080;21.992;2022-12-07T11:44:28;98598.73;;;4.00;85.24
65872;BME280;52653;50.080;21.992;2022-12-07T11:47:09;98595.77;;;4.02;85.60
65872;BME280;52653;50.080;21.992;2022-12-07T11:49:47;98595.75;;;3.96;84.94
65872;BME280;52653;50.080;21.992;2022-12-07T11:52:30;98595.52;;;3.92;85.31
65872;BME280;52653;50.080;21.992;2022-12-07T11:55:13;98595.66;;;3.90;85.77
65872;BME280;52653;50.080;21.992;2022-12-07T11:57:51;98604.50;;;3.87;85.68
65872;BME280;52653;50.080;21.992;2022-12-07T12:00:25;98603.21;;;3.79;85.72
65872;BME280;52653;50.080;21.992;2022-12-07T12:03:01;98601.25;;;3.73;85.36
65872;BME280;52653;50.080;21.992;2022-12-07T12:05:35;98598.63;;;3.70;85.82
65872;BME280;52653;50.080;21.992;2022-12-07T12:08:14;98595.15;;;3.69;85.85
65872;BME280;52653;50.080;21.992;2022-12-07T12:11:19;98596.31;;;3.66;85.42
65872;BME280;52653;50.080;21.992;2022-12-07T12:14:32;98593.53;;;3.65;85.71
65872;BME280;52653;50.080;21.992;2022-12-07T12:17:30;98599.14;;;3.69;85.83
65872;BME280;52653;50.080;21.992;2022-12-07T12:20:19;98594.30;;;3.71;85.96
65872;BME280;52653;50.080;21.992;2022-12-07T12:22:55;98588.23;;;3.71;85.95
65872;BME280;52653;50.080;21.992;2022-12-07T12:25:35;98589.59;;;3.69;85.94
65872;BME280;52653;50.080;21.992;2022-12-07T12:28:22;98600.80;;;3.62;85.36
65872;BME280;52653;50.080;21.992;2022-12-07T12:31:13;98593.41;;;3.53;85.57
65872;BME280;52653;50.080;21.992;2022-12-07T12:33:49;98590.27;;;3.50;85.82
65872;BME280;52653;50.080;21.992;2022-12-07T12:36:26;98595.96;;;3.48;86.02
65872;BME280;52653;50.080;21.992;2022-12-07T12:39:17;98594.23;;;3.48;86.00
65872;BME280;52653;50.080;21.992;2022-12-07T12:41:58;98597.35;;;3.48;86.10
65872;BME280;52653;50.080;21.992;2022-12-07T12:47:54;98595.92;;;3.43;85.80
65872;BME280;52653;50.080;21.992;2022-12-07T12:50:31;98596.17;;;3.35;85.62
65872;BME280;52653;50.080;21.992;2022-12-07T12:53:19;98599.73;;;3.29;85.96
65872;BME280;52653;50.080;21.992;2022-12-07T12:56:17;98599.17;;;3.25;86.28
65872;BME280;52653;50.080;21.992;2022-12-07T12:59:27;98596.04;;;3.22;86.53
65872;BME280;52653;50.080;21.992;2022-12-07T13:02:20;98593.08;;;3.21;86.79
65872;BME280;52653;50.080;21.992;2022-12-07T13:04:57;98592.40;;;3.23;86.63
65872;BME280;52653;50.080;21.992;2022-12-07T13:07:59;98600.02;;;3.23;85.87
65872;BME280;52653;50.080;21.992;2022-12-07T13:10:41;98599.69;;;3.24;86.07
65872;BME280;52653;50.080;21.992;2022-12-07T13:13:35;98604.19;;;3.23;85.83
65872;BME280;52653;50.080;21.992;2022-12-07T13:16:40;98601.25;;;3.25;86.41
65872;BME280;52653;50.080;21.992;2022-12-07T13:22:52;98604.63;;;3.17;85.95
65872;BME280;52653;50.080;21.992;2022-12-07T13:25:35;98608.91;;;3.14;86.02
65872;BME280;52653;50.080;21.992;2022-12-07T13:28:14;98614.45;;;3.12;85.97
65872;BME280;52653;50.080;21.992;2022-12-07T13:31:02;98614.07;;;3.09;85.79
65872;BME280;52653;50.080;21.992;2022-12-07T13:33:37;98610.42;;;3.09;85.79
65872;BME280;52653;50.080;21.992;2022-12-07T13:36:18;98610.92;;;3.06;85.42
65872;BME280;52653;50.080;21.992;2022-12-07T13:38:55;98615.27;;;3.07;85.52
65872;BME280;52653;50.080;21.992;2022-12-07T13:41:29;98613.66;;;3.04;85.58
65872;BME280;52653;50.080;21.992;2022-12-07T13:44:09;98613.10;;;3.02;85.76
65872;BME280;52653;50.080;21.992;2022-12-07T13:46:53;98608.58;;;3.01;86.18
65872;BME280;52653;50.080;21.992;2022-12-07T13:49:29;98609.59;;;2.97;86.43
65872;BME280;52653;50.080;21.992;2022-12-07T13:52:17;98612.33;;;2.94;86.42
65872;BME280;52653;50.080;21.992;2022-12-07T13:54:48;98614.35;;;2.91;86.40
65872;BME280;52653;50.080;21.992;2022-12-07T13:57:22;98614.52;;;2.91;86.52
65872;BME280;52653;50.080;21.992;2022-12-07T13:59:56;98617.48;;;2.92;86.55
65872;BME280;52653;50.080;21.992;2022-12-07T14:02:31;98618.92;;;2.96;86.71
65872;BME280;52653;50.080;21.992;2022-12-07T14:05:13;98613.95;;;3.01;86.83